createdAt,value
2022-08-05T00:01:27.630Z,6.28
2022-08-05T00:03:57.123Z,5.95
2022-08-05T00:06:30.732Z,5.75
2022-08-05T00:09:00.692Z,5.72
2022-08-05T00:11:34.562Z,3.67
2022-08-05T00:14:02.438Z,2.88
2022-08-05T00:16:52.433Z,2.92
2022-08-05T00:19:24.749Z,3.40
2022-08-05T00:22:00.190Z,2.60
2022-08-05T00:24:30.729Z,3.33
2022-08-05T00:26:59.429Z,3.47
2022-08-05T00:29:27.643Z,2.22
2022-08-05T00:32:13.385Z,2.67
2022-08-05T02:30:14.208Z,2.90
2022-08-05T02:32:46.104Z,3.25
2022-08-05T02:35:19.086Z,2.92
2022-08-05T02:37:56.653Z,2.90
2022-08-05T02:40:27.683Z,2.80
2022-08-05T02:42:55.603Z,3.05
2022-08-05T02:45:25.443Z,2.55
2022-08-05T02:48:07.495Z,3.08
2022-08-05T02:50:43.926Z,2.88
2022-08-05T06:24:54.227Z,2.80
2022-08-05T09:14:58.821Z,2.35
2022-08-05T10:18:16.682Z,2.30
2022-08-05T10:20:50.478Z,1.55
2022-08-05T10:23:34.504Z,3.03
2022-08-05T11:33:47.756Z,12.35
2022-08-05T11:36:34.397Z,18.85
2022-08-05T11:39:09.149Z,18.25
2022-08-05T11:42:01.741Z,8.82
2022-08-05T11:44:52.740Z,11.85
2022-08-05T11:47:48.327Z,9.85
2022-08-05T11:50:14.385Z,6.00
2022-08-05T15:10:28.754Z,11.55
2022-08-05T19:20:41.360Z,4.63
2022-08-05T19:24:03.523Z,12.35
2022-08-05T19:26:01.676Z,39.00
2022-08-05T19:28:30.883Z,47.00
2022-08-05T19:30:57.985Z,34.92
2022-08-05T19:33:35.577Z,29.23
2022-08-05T19:38:35.606Z,23.20
2022-08-05T19:41:07.429Z,16.52
2022-08-05T19:44:06.629Z,14.77
2022-08-05T19:46:29.361Z,11.23
2022-08-05T20:27:21.142Z,6.20
2022-08-05T20:29:58.557Z,5.60
2022-08-05T20:32:27.312Z,8.10
2022-08-05T20:34:54.901Z,10.13
2022-08-05T20:38:06.669Z,8.75
2022-08-05T20:40:09.883Z,6.10
2022-08-05T20:42:36.738Z,4.70
2022-08-05T20:45:04.622Z,9.95
2022-08-05T20:47:33.250Z,4.90
2022-08-05T20:55:55.269Z,0.90
2022-08-05T20:57:46.292Z,6.50
2022-08-05T21:00:41.085Z,3.35
2022-08-05T21:16:13.059Z,1.50
2022-08-05T21:18:42.948Z,3.17
2022-08-05T21:21:12.603Z,2.50
2022-08-05T21:26:08.227Z,4.77
2022-08-05T21:28:40.331Z,2.33
2022-08-05T21:31:15.406Z,6.17
2022-08-05T21:33:47.514Z,13.43
2022-08-05T21:36:27.542Z,12.33
2022-08-05T21:38:57.287Z,8.03
2022-08-05T21:41:26.224Z,3.67
2022-08-05T21:44:04.271Z,2.83
2022-08-05T21:46:35.074Z,1.00
2022-08-05T21:49:04.774Z,0.87
2022-08-05T21:52:15.973Z,0.52
2022-08-05T21:57:29.270Z,1.70
2022-08-05T22:00:02.015Z,0.90
2022-08-05T22:07:54.199Z,1.17
